sensor_id;sensor_type;location;lat;lon;timestamp;temperature;humidity
22923;DHT22;11627;51.322;22.816;2023-06-14T00:00:14;14.40;31.10
22923;DHT22;11627;51.322;22.816;2023-06-14T00:02:41;14.50;32.10
22923;DHT22;11627;51.322;22.816;2023-06-14T00:05:08;14.50;28.90
22923;DHT22;11627;51.322;22.816;2023-06-14T00:07:35;14.40;28.40
22923;DHT22;11627;51.322;22.816;2023-06-14T00:10:04;14.40;28.60
22923;DHT22;11627;51.322;22.816;2023-06-14T00:12:31;14.50;26.30
22923;DHT22;11627;51.322;22.816;2023-06-14T00:14:58;14.40;27.00
22923;DHT22;11627;51.322;22.816;2023-06-14T00:17:25;14.40;28.10
22923;DHT22;11627;51.322;22.816;2023-06-14T00:19:59;14.50;28.50
22923;DHT22;11627;51.322;22.816;2023-06-14T00:22:26;14.60;26.50
22923;DHT22;11627;51.322;22.816;2023-06-14T00:24:55;14.60;26.60
22923;DHT22;11627;51.322;22.816;2023-06-14T00:27:22;14.60;26.70
22923;DHT22;11627;51.322;22.816;2023-06-14T00:29:49;14.60;25.60
22923;DHT22;11627;51.322;22.816;2023-06-14T00:32:18;14.40;23.10
22923;DHT22;11627;51.322;22.816;2023-06-14T00:34:45;14.30;27.40
22923;DHT22;11627;51.322;22.816;2023-06-14T00:37:12;14.20;29.20
22923;DHT22;11627;51.322;22.816;2023-06-14T00:39:39;14.20;34.70
22923;DHT22;11627;51.322;22.816;2023-06-14T00:42:06;14.10;37.70
22923;DHT22;11627;51.322;22.816;2023-06-14T00:44:33;14.10;38.50
22923;DHT22;11627;51.322;22.816;2023-06-14T00:47:00;14.10;43.70
22923;DHT22;11627;51.322;22.816;2023-06-14T00:49:29;14.00;47.80
22923;DHT22;11627;51.322;22.816;2023-06-14T00:51:56;14.00;50.20
22923;DHT22;11627;51.322;22.816;2023-06-14T00:54:23;14.00;55.00
22923;DHT22;11627;51.322;22.816;2023-06-14T00:56:51;14.00;52.60
22923;DHT22;11627;51.322;22.816;2023-06-14T00:59:18;13.90;54.50
22923;DHT22;11627;51.322;22.816;2023-06-14T01:01:44;13.80;58.70
22923;DHT22;11627;51.322;22.816;2023-06-14T01:04:10;13.90;60.90
22923;DHT22;11627;51.322;22.816;2023-06-14T01:12:44;13.70;64.60
22923;DHT22;11627;51.322;22.816;2023-06-14T01:15:15;13.70;67.40
22923;DHT22;11627;51.322;22.816;2023-06-14T01:17:42;13.60;69.30
22923;DHT22;11627;51.322;22.816;2023-06-14T01:20:12;13.50;75.10
22923;DHT22;11627;51.322;22.816;2023-06-14T01:22:59;13.40;78.90
22923;DHT22;11627;51.322;22.816;2023-06-14T01:25:26;13.40;82.70
22923;DHT22;11627;51.322;22.816;2023-06-14T01:28:12;13.40;85.30
22923;DHT22;11627;51.322;22.816;2023-06-14T01:30:44;13.50;87.80
22923;DHT22;11627;51.322;22.816;2023-06-14T01:33:16;13.50;87.90
22923;DHT22;11627;51.322;22.816;2023-06-14T01:35:47;13.50;88.80
22923;DHT22;11627;51.322;22.816;2023-06-14T01:38:14;13.50;89.30
22923;DHT22;11627;51.322;22.816;2023-06-14T01:40:45;13.50;88.30
22923;DHT22;11627;51.322;22.816;2023-06-14T01:43:16;13.40;89.10
22923;DHT22;11627;51.322;22.816;2023-06-14T01:45:46;13.40;90.90
22923;DHT22;11627;51.322;22.816;2023-06-14T01:48:13;13.30;91.60
22923;DHT22;11627;51.322;22.816;2023-06-14T01:50:41;13.30;92.70
22923;DHT22;11627;51.322;22.816;2023-06-14T01:53:08;13.30;94.10
22923;DHT22;11627;51.322;22.816;2023-06-14T01:55:35;13.30;94.60
22923;DHT22;11627;51.322;22.816;2023-06-14T01:58:06;13.30;94.90
22923;DHT22;11627;51.322;22.816;2023-06-14T02:00:33;13.30;95.60
22923;DHT22;11627;51.322;22.816;2023-06-14T02:03:00;13.30;95.20
22923;DHT22;11627;51.322;22.816;2023-06-14T02:05:28;13.30;95.50
22923;DHT22;11627;51.322;22.816;2023-06-14T02:07:55;13.30;95.80
22923;DHT22;11627;51.322;22.816;2023-06-14T02:10:21;13.30;97.40
22923;DHT22;11627;51.322;22.816;2023-06-14T02:12:49;13.20;97.20
22923;DHT22;11627;51.322;22.816;2023-06-14T02:15:15;13.30;98.20
22923;DHT22;11627;51.322;22.816;2023-06-14T02:17:49;13.30;99.10
22923;DHT22;11627;51.322;22.816;2023-06-14T02:20:19;13.40;97.50
22923;DHT22;11627;51.322;22.816;2023-06-14T02:22:46;13.60;97.80
22923;DHT22;11627;51.322;22.816;2023-06-14T02:25:13;13.70;96.50
22923;DHT22;11627;51.322;22.816;2023-06-14T02:27:40;13.80;95.60
22923;DHT22;11627;51.322;22.816;2023-06-14T02:30:08;14.00;91.80
22923;DHT22;11627;51.322;22.816;2023-06-14T02:32:35;14.00;85.70
22923;DHT22;11627;51.322;22.816;2023-06-14T02:35:02;14.00;80.30
22923;DHT22;11627;51.322;22.816;2023-06-14T02:37:31;14.00;79.00
22923;DHT22;11627;51.322;22.816;2023-06-14T02:39:58;14.10;76.90
22923;DHT22;11627;51.322;22.816;2023-06-14T02:42:25;14.10;71.70
22923;DHT22;11627;51.322;22.816;2023-06-14T02:44:52;14.10;73.50
22923;DHT22;11627;51.322;22.816;2023-06-14T02:47:19;14.20;70.90
22923;DHT22;11627;51.322;22.816;2023-06-14T02:49:46;14.20;68.00
22923;DHT22;11627;51.322;22.816;2023-06-14T02:52:16;14.30;66.90
22923;DHT22;11627;51.322;22.816;2023-06-14T02:54:43;14.30;65.30
22923;DHT22;11627;51.322;22.816;2023-06-14T02:57:10;14.40;61.50
22923;DHT22;11627;51.322;22.816;2023-06-14T02:59:37;14.40;58.50
22923;DHT22;11627;51.322;22.816;2023-06-14T03:02:04;14.40;58.80
22923;DHT22;11627;51.322;22.816;2023-06-14T03:04:32;14.30;55.00
22923;DHT22;11627;51.322;22.816;2023-06-14T03:07:04;14.30;57.80
22923;DHT22;11627;51.322;22.816;2023-06-14T03:09:37;14.30;56.60
22923;DHT22;11627;51.322;22.816;2023-06-14T03:12:06;14.10;64.50
22923;DHT22;11627;51.322;22.816;2023-06-14T03:14:37;14.20;70.00
22923;DHT22;11627;51.322;22.816;2023-06-14T03:17:23;14.30;70.30
22923;DHT22;11627;51.322;22.816;2023-06-14T03:19:51;14.40;67.40
22923;DHT22;11627;51.322;22.816;2023-06-14T03:22:18;14.40;63.40
22923;DHT22;11627;51.322;22.816;2023-06-14T03:24:44;14.40;60.20
22923;DHT22;11627;51.322;22.816;2023-06-14T03:27:12;14.40;56.90
22923;DHT22;11627;51.322;22.816;2023-06-14T03:29:39;14.40;54.30
22923;DHT22;11627;51.322;22.816;2023-06-14T03:32:07;14.50;51.30
22923;DHT22;11627;51.322;22.816;2023-06-14T03:34:34;14.50;50.90
22923;DHT22;11627;51.322;22.816;2023-06-14T03:37:01;14.50;51.10
22923;DHT22;11627;51.322;22.816;2023-06-14T03:39:28;14.50;49.70
22923;DHT22;11627;51.322;22.816;2023-06-14T03:41:56;14.50;51.80
22923;DHT22;11627;51.322;22.816;2023-06-14T03:44:23;14.50;52.00
22923;DHT22;11627;51.322;22.816;2023-06-14T03:46:49;14.50;56.50
22923;DHT22;11627;51.322;22.816;2023-06-14T03:49:16;14.60;62.20
22923;DHT22;11627;51.322;22.816;2023-06-14T03:51:43;14.70;57.40
22923;DHT22;11627;51.322;22.816;2023-06-14T03:54:13;14.70;54.60
22923;DHT22;11627;51.322;22.816;2023-06-14T03:56:40;14.70;51.40
22923;DHT22;11627;51.322;22.816;2023-06-14T03:59:06;14.80;48.30
22923;DHT22;11627;51.322;22.816;2023-06-14T04:01:33;14.70;42.30
22923;DHT22;11627;51.322;22.816;2023-06-14T04:03:59;14.70;42.10
22923;DHT22;11627;51.322;22.816;2023-06-14T04:06:26;14.60;43.80
22923;DHT22;11627;51.322;22.816;2023-06-14T04:08:59;14.50;49.10
22923;DHT22;11627;51.322;22.816;2023-06-14T04:11:31;14.40;55.20
22923;DHT22;11627;51.322;22.816;2023-06-14T04:13:58;14.40;65.50
22923;DHT22;11627;51.322;22.816;2023-06-14T04:16:26;14.40;69.40
22923;DHT22;11627;51.322;22.816;2023-06-14T04:18:56;14.50;67.40
22923;DHT22;11627;51.322;22.816;2023-06-14T04:21:24;14.50;68.10
22923;DHT22;11627;51.322;22.816;2023-06-14T04:23:53;14.60;67.90
22923;DHT22;11627;51.322;22.816;2023-06-14T04:26:22;14.70;65.70
22923;DHT22;11627;51.322;22.816;2023-06-14T04:28:50;14.80;61.50
22923;DHT22;11627;51.322;22.816;2023-06-14T04:31:17;14.90;53.30
22923;DHT22;11627;51.322;22.816;2023-06-14T04:33:45;15.00;48.90
22923;DHT22;11627;51.322;22.816;2023-06-14T04:36:14;15.00;45.90
22923;DHT22;11627;51.322;22.816;2023-06-14T04:38:44;15.00;40.70
22923;DHT22;11627;51.322;22.816;2023-06-14T04:41:12;15.10;39.70
22923;DHT22;11627;51.322;22.816;2023-06-14T04:43:39;15.10;38.10
22923;DHT22;11627;51.322;22.816;2023-06-14T04:46:07;15.20;36.20
22923;DHT22;11627;51.322;22.816;2023-06-14T04:48:40;15.20;27.40
22923;DHT22;11627;51.322;22.816;2023-06-14T04:51:09;15.20;23.90
22923;DHT22;11627;51.322;22.816;2023-06-14T04:53:38;15.20;19.40
22923;DHT22;11627;51.322;22.816;2023-06-14T04:56:05;15.20;22.10
22923;DHT22;11627;51.322;22.816;2023-06-14T04:58:32;15.30;21.70
22923;DHT22;11627;51.322;22.816;2023-06-14T05:00:59;15.30;24.80
22923;DHT22;11627;51.322;22.816;2023-06-14T05:03:26;15.30;27.10
22923;DHT22;11627;51.322;22.816;2023-06-14T05:05:54;15.30;25.50
22923;DHT22;11627;51.322;22.816;2023-06-14T05:08:21;15.30;23.30
22923;DHT22;11627;51.322;22.816;2023-06-14T05:10:51;15.30;22.30
22923;DHT22;11627;51.322;22.816;2023-06-14T05:13:19;15.40;21.40
22923;DHT22;11627;51.322;22.816;2023-06-14T05:15:47;15.40;21.00
22923;DHT22;11627;51.322;22.816;2023-06-14T05:18:15;15.50;23.00
22923;DHT22;11627;51.322;22.816;2023-06-14T05:20:43;15.50;25.90
22923;DHT22;11627;51.322;22.816;2023-06-14T05:23:10;15.60;24.40
22923;DHT22;11627;51.322;22.816;2023-06-14T05:25:43;15.50;22.30
22923;DHT22;11627;51.322;22.816;2023-06-14T05:28:11;15.50;21.90
22923;DHT22;11627;51.322;22.816;2023-06-14T05:30:38;15.50;20.50
22923;DHT22;11627;51.322;22.816;2023-06-14T05:33:06;15.60;16.40
22923;DHT22;11627;51.322;22.816;2023-06-14T05:35:33;15.60;15.60
22923;DHT22;11627;51.322;22.816;2023-06-14T05:38:01;15.60;15.40
22923;DHT22;11627;51.322;22.816;2023-06-14T05:40:28;15.60;10.60
22923;DHT22;11627;51.322;22.816;2023-06-14T05:42:55;15.60;11.70
22923;DHT22;11627;51.322;22.816;2023-06-14T05:45:21;15.60;14.40
22923;DHT22;11627;51.322;22.816;2023-06-14T05:47:48;15.70;13.40
22923;DHT22;11627;51.322;22.816;2023-06-14T05:50:13;15.70;12.90
22923;DHT22;11627;51.322;22.816;2023-06-14T05:52:40;15.70;8.60
22923;DHT22;11627;51.322;22.816;2023-06-14T05:55:06;15.80;3.90
22923;DHT22;11627;51.322;22.816;2023-06-14T05:57:33;15.80;3.70
22923;DHT22;11627;51.322;22.816;2023-06-14T06:00:00;15.80;1.00
22923;DHT22;11627;51.322;22.816;2023-06-14T06:02:26;15.90;1.00
22923;DHT22;11627;51.322;22.816;2023-06-14T06:04:53;15.90;1.00
22923;DHT22;11627;51.322;22.816;2023-06-14T06:07:20;15.90;1.00
22923;DHT22;11627;51.322;22.816;2023-06-14T06:09:49;16.00;1.00
22923;DHT22;11627;51.322;22.816;2023-06-14T06:12:16;16.10;1.00
22923;DHT22;11627;51.322;22.816;2023-06-14T06:14:42;16.20;1.00
22923;DHT22;11627;51.322;22.816;2023-06-14T06:17:09;16.20;1.00
22923;DHT22;11627;51.322;22.816;2023-06-14T06:19:36;16.20;1.00
22923;DHT22;11627;51.322;22.816;2023-06-14T06:22:04;16.20;1.00
22923;DHT22;11627;51.322;22.816;2023-06-14T06:24:32;16.30;1.00
22923;DHT22;11627;51.322;22.816;2023-06-14T06:26:59;16.30;1.00
22923;DHT22;11627;51.322;22.816;2023-06-14T06:29:27;16.40;1.00
22923;DHT22;11627;51.322;22.816;2023-06-14T06:31:53;16.40;1.00
22923;DHT22;11627;51.322;22.816;2023-06-14T06:34:20;16.40;1.00
22923;DHT22;11627;51.322;22.816;2023-06-14T06:36:47;16.50;1.00
22923;DHT22;11627;51.322;22.816;2023-06-14T06:39:14;16.60;1.00
22923;DHT22;11627;51.322;22.816;2023-06-14T06:41:41;16.60;1.00
22923;DHT22;11627;51.322;22.816;2023-06-14T06:44:08;16.70;1.00
22923;DHT22;11627;51.322;22.816;2023-06-14T06:46:39;16.80;1.00
22923;DHT22;11627;51.322;22.816;2023-06-14T06:49:07;16.80;1.00
22923;DHT22;11627;51.322;22.816;2023-06-14T06:51:35;16.80;1.00
22923;DHT22;11627;51.322;22.816;2023-06-14T06:54:03;16.90;1.00
22923;DHT22;11627;51.322;22.816;2023-06-14T06:56:32;16.90;1.00
22923;DHT22;11627;51.322;22.816;2023-06-14T06:59:01;16.90;1.00
22923;DHT22;11627;51.322;22.816;2023-06-14T07:01:29;16.90;1.00
22923;DHT22;11627;51.322;22.816;2023-06-14T07:03:56;17.00;1.00
22923;DHT22;11627;51.322;22.816;2023-06-14T07:06:22;17.10;1.00
22923;DHT22;11627;51.322;22.816;2023-06-14T07:09:09;17.10;1.00
22923;DHT22;11627;51.322;22.816;2023-06-14T07:11:44;17.10;1.00
22923;DHT22;11627;51.322;22.816;2023-06-14T07:14:11;17.10;1.00
22923;DHT22;11627;51.322;22.816;2023-06-14T07:16:40;17.20;1.00
22923;DHT22;11627;51.322;22.816;2023-06-14T07:19:07;17.20;1.00
22923;DHT22;11627;51.322;22.816;2023-06-14T07:21:36;17.20;1.00
22923;DHT22;11627;51.322;22.816;2023-06-14T07:24:07;17.30;1.00
22923;DHT22;11627;51.322;22.816;2023-06-14T07:26:35;17.30;1.00
22923;DHT22;11627;51.322;22.816;2023-06-14T07:29:02;17.40;1.00
22923;DHT22;11627;51.322;22.816;2023-06-14T07:31:30;17.40;1.00
22923;DHT22;11627;51.322;22.816;2023-06-14T07:33:57;17.40;1.00
22923;DHT22;11627;51.322;22.816;2023-06-14T07:36:23;17.40;1.00
22923;DHT22;11627;51.322;22.816;2023-06-14T07:38:50;17.40;1.00
22923;DHT22;11627;51.322;22.816;2023-06-14T07:41:17;17.40;1.00
22923;DHT22;11627;51.322;22.816;2023-06-14T07:43:44;17.40;1.00
22923;DHT22;11627;51.322;22.816;2023-06-14T07:46:12;17.40;1.00
22923;DHT22;11627;51.322;22.816;2023-06-14T07:48:40;17.40;1.00
22923;DHT22;11627;51.322;22.816;2023-06-14T07:51:07;17.40;1.00
22923;DHT22;11627;51.322;22.816;2023-06-14T07:53:32;17.40;1.00
22923;DHT22;11627;51.322;22.816;2023-06-14T07:55:59;17.40;1.00
22923;DHT22;11627;51.322;22.816;2023-06-14T07:58:25;17.40;1.00
22923;DHT22;11627;51.322;22.816;2023-06-14T08:00:51;17.40;1.00
22923;DHT22;11627;51.322;22.816;2023-06-14T08:03:17;17.40;1.00
22923;DHT22;11627;51.322;22.816;2023-06-14T08:05:43;17.40;1.00
22923;DHT22;11627;51.322;22.816;2023-06-14T08:08:09;17.50;1.00
22923;DHT22;11627;51.322;22.816;2023-06-14T08:10:35;17.50;1.00
22923;DHT22;11627;51.322;22.816;2023-06-14T08:13:01;17.50;1.00
22923;DHT22;11627;51.322;22.816;2023-06-14T08:15:27;17.60;1.00
22923;DHT22;11627;51.322;22.816;2023-06-14T08:17:52;17.60;1.00
22923;DHT22;11627;51.322;22.816;2023-06-14T08:20:18;17.60;1.00
22923;DHT22;11627;51.322;22.816;2023-06-14T08:22:44;17.70;99.90
22923;DHT22;11627;51.322;22.816;2023-06-14T08:25:11;17.60;99.90
22923;DHT22;11627;51.322;22.816;2023-06-14T08:27:37;17.50;99.90
22923;DHT22;11627;51.322;22.816;2023-06-14T08:30:03;17.50;99.90
22923;DHT22;11627;51.322;22.816;2023-06-14T08:32:29;17.50;1.00
22923;DHT22;11627;51.322;22.816;2023-06-14T08:34:56;17.50;1.00
22923;DHT22;11627;51.322;22.816;2023-06-14T08:37:22;17.60;99.90
22923;DHT22;11627;51.322;22.816;2023-06-14T08:39:48;17.60;99.90
22923;DHT22;11627;51.322;22.816;2023-06-14T08:42:14;17.70;99.90
22923;DHT22;11627;51.322;22.816;2023-06-14T08:44:41;17.70;99.90
22923;DHT22;11627;51.322;22.816;2023-06-14T08:47:07;17.80;99.90
22923;DHT22;11627;51.322;22.816;2023-06-14T08:49:36;17.80;99.90
22923;DHT22;11627;51.322;22.816;2023-06-14T08:52:07;17.90;99.90
22923;DHT22;11627;51.322;22.816;2023-06-14T08:54:34;18.00;99.90
22923;DHT22;11627;51.322;22.816;2023-06-14T08:57:03;18.10;99.90
22923;DHT22;11627;51.322;22.816;2023-06-14T08:59:32;18.20;99.90
22923;DHT22;11627;51.322;22.816;2023-06-14T09:02:06;18.20;99.90
22923;DHT22;11627;51.322;22.816;2023-06-14T09:04:33;18.30;99.90
22923;DHT22;11627;51.322;22.816;2023-06-14T09:07:01;18.40;99.90
22923;DHT22;11627;51.322;22.816;2023-06-14T09:09:27;18.40;99.90
22923;DHT22;11627;51.322;22.816;2023-06-14T09:11:52;18.40;99.90
22923;DHT22;11627;51.322;22.816;2023-06-14T09:14:19;18.50;99.90
22923;DHT22;11627;51.322;22.816;2023-06-14T09:16:46;18.60;99.90
22923;DHT22;11627;51.322;22.816;2023-06-14T09:19:24;18.60;99.90
22923;DHT22;11627;51.322;22.816;2023-06-14T09:21:50;18.50;99.90
22923;DHT22;11627;51.322;22.816;2023-06-14T09:24:18;18.50;99.90
22923;DHT22;11627;51.322;22.816;2023-06-14T09:26:47;18.60;99.90
22923;DHT22;11627;51.322;22.816;2023-06-14T09:29:13;18.60;99.90
22923;DHT22;11627;51.322;22.816;2023-06-14T09:31:39;18.70;99.90
22923;DHT22;11627;51.322;22.816;2023-06-14T09:34:05;18.70;99.90
22923;DHT22;11627;51.322;22.816;2023-06-14T09:36:32;18.80;99.90
22923;DHT22;11627;51.322;22.816;2023-06-14T09:39:02;18.90;99.90
22923;DHT22;11627;51.322;22.816;2023-06-14T09:41:39;19.00;99.90
22923;DHT22;11627;51.322;22.816;2023-06-14T09:44:09;18.90;99.90
22923;DHT22;11627;51.322;22.816;2023-06-14T09:46:36;19.00;99.90
22923;DHT22;11627;51.322;22.816;2023-06-14T09:49:03;18.90;99.90
22923;DHT22;11627;51.322;22.816;2023-06-14T09:51:30;18.80;99.90
22923;DHT22;11627;51.322;22.816;2023-06-14T09:53:59;18.80;99.90
22923;DHT22;11627;51.322;22.816;2023-06-14T09:59:22;18.70;99.90
22923;DHT22;11627;51.322;22.816;2023-06-14T10:02:00;18.60;99.90
22923;DHT22;11627;51.322;22.816;2023-06-14T10:04:30;18.60;99.90
22923;DHT22;11627;51.322;22.816;2023-06-14T10:06:57;18.70;99.90
22923;DHT22;11627;51.322;22.816;2023-06-14T10:09:25;18.70;99.90
22923;DHT22;11627;51.322;22.816;2023-06-14T10:11:51;18.80;99.90
22923;DHT22;11627;51.322;22.816;2023-06-14T10:14:17;18.80;99.90
22923;DHT22;11627;51.322;22.816;2023-06-14T10:17:00;18.90;99.90
22923;DHT22;11627;51.322;22.816;2023-06-14T10:19:42;18.90;99.90
22923;DHT22;11627;51.322;22.816;2023-06-14T10:22:24;18.80;99.90
22923;DHT22;11627;51.322;22.816;2023-06-14T10:24:51;18.80;99.90
22923;DHT22;11627;51.322;22.816;2023-06-14T10:27:17;18.70;99.90
22923;DHT22;11627;51.322;22.816;2023-06-14T10:32:24;18.50;99.90
22923;DHT22;11627;51.322;22.816;2023-06-14T10:35:06;18.50;99.90
22923;DHT22;11627;51.322;22.816;2023-06-14T10:37:32;18.40;99.90
22923;DHT22;11627;51.322;22.816;2023-06-14T10:39:58;18.40;99.90
22923;DHT22;11627;51.322;22.816;2023-06-14T10:42:33;18.40;99.90
22923;DHT22;11627;51.322;22.816;2023-06-14T10:44:59;18.40;99.90
22923;DHT22;11627;51.322;22.816;2023-06-14T10:47:26;18.40;99.90
22923;DHT22;11627;51.322;22.816;2023-06-14T10:52:28;18.40;99.90
22923;DHT22;11627;51.322;22.816;2023-06-14T10:55:02;18.40;99.90
22923;DHT22;11627;51.322;22.816;2023-06-14T10:57:30;18.30;99.90
22923;DHT22;11627;51.322;22.816;2023-06-14T10:59:59;18.30;99.90
22923;DHT22;11627;51.322;22.816;2023-06-14T11:05:30;18.50;99.90
22923;DHT22;11627;51.322;22.816;2023-06-14T11:10:45;18.40;99.90
22923;DHT22;11627;51.322;22.816;2023-06-14T11:13:11;18.30;99.90
22923;DHT22;11627;51.322;22.816;2023-06-14T11:15:45;18.30;99.90
22923;DHT22;11627;51.322;22.816;2023-06-14T11:18:13;18.30;99.90
22923;DHT22;11627;51.322;22.816;2023-06-14T11:20:39;18.30;99.90
22923;DHT22;11627;51.322;22.816;2023-06-14T11:23:05;18.30;99.90
22923;DHT22;11627;51.322;22.816;2023-06-14T11:25:32;18.30;99.90
22923;DHT22;11627;51.322;22.816;2023-06-14T11:27:58;18.30;99.90
22923;DHT22;11627;51.322;22.816;2023-06-14T11:30:26;18.20;99.90
22923;DHT22;11627;51.322;22.816;2023-06-14T11:32:54;18.30;99.90
22923;DHT22;11627;51.322;22.816;2023-06-14T11:35:22;18.30;99.90
22923;DHT22;11627;51.322;22.816;2023-06-14T11:37:58;18.30;99.90
22923;DHT22;11627;51.322;22.816;2023-06-14T11:40:26;18.40;99.90
22923;DHT22;11627;51.322;22.816;2023-06-14T11:43:02;18.40;99.90
22923;DHT22;11627;51.322;22.816;2023-06-14T11:45:32;18.30;99.90
22923;DHT22;11627;51.322;22.816;2023-06-14T11:47:59;18.40;99.90
22923;DHT22;11627;51.322;22.816;2023-06-14T11:50:30;18.40;99.90
22923;DHT22;11627;51.322;22.816;2023-06-14T11:52:59;18.30;99.90
22923;DHT22;11627;51.322;22.816;2023-06-14T11:55:39;18.40;99.90
22923;DHT22;11627;51.322;22.816;2023-06-14T11:58:07;18.30;99.90
22923;DHT22;11627;51.322;22.816;2023-06-14T12:00:37;18.20;99.90
22923;DHT22;11627;51.322;22.816;2023-06-14T12:03:03;18.20;99.90
22923;DHT22;11627;51.322;22.816;2023-06-14T12:05:30;18.20;99.90
22923;DHT22;11627;51.322;22.816;2023-06-14T12:08:02;18.20;99.90
22923;DHT22;11627;51.322;22.816;2023-06-14T12:10:40;18.20;99.90
22923;DHT22;11627;51.322;22.816;2023-06-14T12:13:06;18.10;99.90
22923;DHT22;11627;51.322;22.816;2023-06-14T12:15:32;18.10;99.90
22923;DHT22;11627;51.322;22.816;2023-06-14T12:17:58;18.10;99.90
22923;DHT22;11627;51.322;22.816;2023-06-14T12:20:29;18.10;99.90
22923;DHT22;11627;51.322;22.816;2023-06-14T12:23:02;18.00;99.90
22923;DHT22;11627;51.322;22.816;2023-06-14T12:25:33;18.00;99.90
22923;DHT22;11627;51.322;22.816;2023-06-14T12:28:08;17.90;99.90
22923;DHT22;11627;51.322;22.816;2023-06-14T12:30:35;17.90;99.90
22923;DHT22;11627;51.322;22.816;2023-06-14T12:33:05;17.70;99.90
22923;DHT22;11627;51.322;22.816;2023-06-14T12:35:32;17.70;99.90
22923;DHT22;11627;51.322;22.816;2023-06-14T12:37:58;17.70;99.90
22923;DHT22;11627;51.322;22.816;2023-06-14T12:40:24;17.60;1.00
22923;DHT22;11627;51.322;22.816;2023-06-14T12:42:50;17.50;1.00
22923;DHT22;11627;51.322;22.816;2023-06-14T12:45:16;17.50;1.00
22923;DHT22;11627;51.322;22.816;2023-06-14T12:47:43;17.40;1.00
22923;DHT22;11627;51.322;22.816;2023-06-14T12:50:09;17.20;1.00
22923;DHT22;11627;51.322;22.816;2023-06-14T12:52:36;17.20;1.00
22923;DHT22;11627;51.322;22.816;2023-06-14T12:55:05;17.30;1.00
22923;DHT22;11627;51.322;22.816;2023-06-14T12:57:32;17.30;1.00
22923;DHT22;11627;51.322;22.816;2023-06-14T13:00:00;17.40;1.00
22923;DHT22;11627;51.322;22.816;2023-06-14T13:02:29;17.40;1.00
22923;DHT22;11627;51.322;22.816;2023-06-14T13:04:55;17.40;1.00
22923;DHT22;11627;51.322;22.816;2023-06-14T13:07:22;17.40;1.00
22923;DHT22;11627;51.322;22.816;2023-06-14T13:09:48;17.50;1.00
22923;DHT22;11627;51.322;22.816;2023-06-14T13:12:15;17.50;1.00
22923;DHT22;11627;51.322;22.816;2023-06-14T13:14:42;17.30;6.60
22923;DHT22;11627;51.322;22.816;2023-06-14T13:17:10;17.20;14.00
22923;DHT22;11627;51.322;22.816;2023-06-14T13:19:37;17.20;18.40
22923;DHT22;11627;51.322;22.816;2023-06-14T13:22:04;17.20;22.40
22923;DHT22;11627;51.322;22.816;2023-06-14T13:24:31;17.10;31.30
22923;DHT22;11627;51.322;22.816;2023-06-14T13:26:58;17.00;41.60
22923;DHT22;11627;51.322;22.816;2023-06-14T13:29:25;17.00;48.20
22923;DHT22;11627;51.322;22.816;2023-06-14T13:31:53;16.80;50.30
22923;DHT22;11627;51.322;22.816;2023-06-14T13:34:20;16.90;49.20
22923;DHT22;11627;51.322;22.816;2023-06-14T13:36:49;17.00;47.80
22923;DHT22;11627;51.322;22.816;2023-06-14T13:39:16;17.00;55.20
22923;DHT22;11627;51.322;22.816;2023-06-14T13:41:43;17.00;60.90
22923;DHT22;11627;51.322;22.816;2023-06-14T13:44:10;17.00;63.50
22923;DHT22;11627;51.322;22.816;2023-06-14T13:46:42;17.00;72.10
22923;DHT22;11627;51.322;22.816;2023-06-14T13:49:10;17.00;72.60
22923;DHT22;11627;51.322;22.816;2023-06-14T13:51:37;17.00;71.40
22923;DHT22;11627;51.322;22.816;2023-06-14T13:54:04;16.90;75.20
22923;DHT22;11627;51.322;22.816;2023-06-14T13:56:31;17.00;83.90
22923;DHT22;11627;51.322;22.816;2023-06-14T13:58:58;17.00;82.30
22923;DHT22;11627;51.322;22.816;2023-06-14T14:01:26;16.90;83.80
22923;DHT22;11627;51.322;22.816;2023-06-14T14:03:55;17.00;84.40
22923;DHT22;11627;51.322;22.816;2023-06-14T14:06:22;17.00;85.70
22923;DHT22;11627;51.322;22.816;2023-06-14T14:08:49;17.00;86.00
22923;DHT22;11627;51.322;22.816;2023-06-14T14:11:16;17.00;90.10
22923;DHT22;11627;51.322;22.816;2023-06-14T14:13:43;17.10;84.00
22923;DHT22;11627;51.322;22.816;2023-06-14T14:16:12;17.10;75.80
22923;DHT22;11627;51.322;22.816;2023-06-14T14:18:38;17.10;79.50
22923;DHT22;11627;51.322;22.816;2023-06-14T14:21:04;17.20;76.20
22923;DHT22;11627;51.322;22.816;2023-06-14T14:23:30;17.20;63.40
22923;DHT22;11627;51.322;22.816;2023-06-14T14:25:56;17.20;58.10
22923;DHT22;11627;51.322;22.816;2023-06-14T14:28:23;17.30;65.50
22923;DHT22;11627;51.322;22.816;2023-06-14T14:30:49;17.40;69.00
22923;DHT22;11627;51.322;22.816;2023-06-14T14:33:16;17.50;62.80
22923;DHT22;11627;51.322;22.816;2023-06-14T14:35:45;17.50;59.70
22923;DHT22;11627;51.322;22.816;2023-06-14T14:38:24;17.40;61.70
22923;DHT22;11627;51.322;22.816;2023-06-14T14:40:51;17.50;54.80
22923;DHT22;11627;51.322;22.816;2023-06-14T14:43:17;17.60;45.00
22923;DHT22;11627;51.322;22.816;2023-06-14T14:45:42;17.60;42.80
22923;DHT22;11627;51.322;22.816;2023-06-14T14:48:08;17.60;24.60
22923;DHT22;11627;51.322;22.816;2023-06-14T14:50:34;17.60;21.60
22923;DHT22;11627;51.322;22.816;2023-06-14T14:53:00;17.60;22.30
22923;DHT22;11627;51.322;22.816;2023-06-14T14:55:27;17.60;20.40
22923;DHT22;11627;51.322;22.816;2023-06-14T14:57:53;17.60;12.00
22923;DHT22;11627;51.322;22.816;2023-06-14T15:00:19;17.60;1.00
22923;DHT22;11627;51.322;22.816;2023-06-14T15:02:45;17.70;1.00
22923;DHT22;11627;51.322;22.816;2023-06-14T15:05:11;17.70;8.30
22923;DHT22;11627;51.322;22.816;2023-06-14T15:07:36;17.70;12.70
22923;DHT22;11627;51.322;22.816;2023-06-14T15:10:06;17.70;16.60
22923;DHT22;11627;51.322;22.816;2023-06-14T15:12:34;17.80;18.50
22923;DHT22;11627;51.322;22.816;2023-06-14T15:15:00;17.80;18.20
22923;DHT22;11627;51.322;22.816;2023-06-14T15:17:26;17.80;24.20
22923;DHT22;11627;51.322;22.816;2023-06-14T15:19:52;17.90;27.10
22923;DHT22;11627;51.322;22.816;2023-06-14T15:22:18;18.00;16.70
22923;DHT22;11627;51.322;22.816;2023-06-14T15:24:44;18.00;1.00
22923;DHT22;11627;51.322;22.816;2023-06-14T15:27:12;17.90;1.00
22923;DHT22;11627;51.322;22.816;2023-06-14T15:29:39;17.80;1.00
22923;DHT22;11627;51.322;22.816;2023-06-14T15:32:05;17.70;1.00
22923;DHT22;11627;51.322;22.816;2023-06-14T15:34:32;17.70;1.00
22923;DHT22;11627;51.322;22.816;2023-06-14T15:36:59;17.70;1.00
22923;DHT22;11627;51.322;22.816;2023-06-14T15:39:26;17.60;1.00
22923;DHT22;11627;51.322;22.816;2023-06-14T15:41:52;17.50;1.00
22923;DHT22;11627;51.322;22.816;2023-06-14T15:44:18;17.50;1.00